sensor_id;sensor_type;location;lat;lon;timestamp;P1;durP1;ratioP1;P2;durP2;ratioP2
11344;SDS011;5727;42.600;23.028;2024-01-30T00:00:10;6.47;;;5.37;;
11344;SDS011;5727;42.600;23.028;2024-01-30T00:02:45;5.90;;;5.40;;
11344;SDS011;5727;42.600;23.028;2024-01-30T00:05:13;6.00;;;5.50;;
11344;SDS011;5727;42.600;23.028;2024-01-30T00:07:42;6.03;;;5.53;;
11344;SDS011;5727;42.600;23.028;2024-01-30T00:10:10;5.93;;;5.53;;
11344;SDS011;5727;42.600;23.028;2024-01-30T00:12:37;6.10;;;5.33;;
11344;SDS011;5727;42.600;23.028;2024-01-30T00:15:05;6.27;;;5.77;;
11344;SDS011;5727;42.600;23.028;2024-01-30T00:17:35;6.00;;;5.50;;
11344;SDS011;5727;42.600;23.028;2024-01-30T00:20:02;6.50;;;5.90;;
11344;SDS011;5727;42.600;23.028;2024-01-30T00:22:32;7.00;;;6.00;;
11344;SDS011;5727;42.600;23.028;2024-01-30T00:25:01;5.73;;;5.27;;
11344;SDS011;5727;42.600;23.028;2024-01-30T00:27:28;6.13;;;5.60;;
11344;SDS011;5727;42.600;23.028;2024-01-30T00:29:55;6.07;;;5.57;;
11344;SDS011;5727;42.600;23.028;2024-01-30T00:32:23;6.03;;;5.53;;
11344;SDS011;5727;42.600;23.028;2024-01-30T00:34:50;5.73;;;5.33;;
11344;SDS011;5727;42.600;23.028;2024-01-30T00:37:17;6.67;;;5.87;;
11344;SDS011;5727;42.600;23.028;2024-01-30T00:39:46;6.00;;;5.60;;
11344;SDS011;5727;42.600;23.028;2024-01-30T00:42:15;5.80;;;5.30;;
11344;SDS011;5727;42.600;23.028;2024-01-30T00:44:43;6.57;;;5.70;;
11344;SDS011;5727;42.600;23.028;2024-01-30T00:47:10;6.93;;;6.23;;
11344;SDS011;5727;42.600;23.028;2024-01-30T00:49:37;6.17;;;5.67;;
11344;SDS011;5727;42.600;23.028;2024-01-30T00:52:05;7.10;;;5.63;;
11344;SDS011;5727;42.600;23.028;2024-01-30T00:54:32;5.70;;;5.20;;
11344;SDS011;5727;42.600;23.028;2024-01-30T00:56:59;6.30;;;5.73;;
11344;SDS011;5727;42.600;23.028;2024-01-30T00:59:28;6.50;;;5.97;;
11344;SDS011;5727;42.600;23.028;2024-01-30T01:01:55;6.07;;;5.57;;
11344;SDS011;5727;42.600;23.028;2024-01-30T01:04:23;6.00;;;5.50;;
11344;SDS011;5727;42.600;23.028;2024-01-30T01:06:51;6.30;;;5.70;;
11344;SDS011;5727;42.600;23.028;2024-01-30T01:09:18;6.13;;;5.57;;
11344;SDS011;5727;42.600;23.028;2024-01-30T01:11:45;6.10;;;5.57;;
11344;SDS011;5727;42.600;23.028;2024-01-30T01:14:13;6.33;;;5.73;;
11344;SDS011;5727;42.600;23.028;2024-01-30T01:16:41;5.83;;;5.33;;
11344;SDS011;5727;42.600;23.028;2024-01-30T01:19:09;5.77;;;5.37;;
11344;SDS011;5727;42.600;23.028;2024-01-30T01:21:39;6.40;;;5.80;;
11344;SDS011;5727;42.600;23.028;2024-01-30T01:24:07;6.87;;;6.17;;
11344;SDS011;5727;42.600;23.028;2024-01-30T01:26:35;6.67;;;6.03;;
11344;SDS011;5727;42.600;23.028;2024-01-30T01:29:03;6.83;;;6.23;;
11344;SDS011;5727;42.600;23.028;2024-01-30T01:31:37;5.93;;;5.53;;
11344;SDS011;5727;42.600;23.028;2024-01-30T01:34:10;6.33;;;5.73;;
11344;SDS011;5727;42.600;23.028;2024-01-30T01:36:38;6.93;;;6.33;;
11344;SDS011;5727;42.600;23.028;2024-01-30T01:39:06;7.90;;;6.30;;
11344;SDS011;5727;42.600;23.028;2024-01-30T01:41:33;6.30;;;5.80;;
11344;SDS011;5727;42.600;23.028;2024-01-30T01:44:01;7.27;;;6.57;;
11344;SDS011;5727;42.600;23.028;2024-01-30T01:46:29;7.87;;;6.93;;
11344;SDS011;5727;42.600;23.028;2024-01-30T01:48:59;7.03;;;6.43;;
11344;SDS011;5727;42.600;23.028;2024-01-30T01:51:29;7.47;;;6.27;;
11344;SDS011;5727;42.600;23.028;2024-01-30T01:54:01;7.10;;;6.50;;
11344;SDS011;5727;42.600;23.028;2024-01-30T01:56:30;6.47;;;5.90;;
11344;SDS011;5727;42.600;23.028;2024-01-30T01:59:00;7.13;;;6.33;;
11344;SDS011;5727;42.600;23.028;2024-01-30T02:01:33;5.87;;;5.47;;
11344;SDS011;5727;42.600;23.028;2024-01-30T02:04:02;6.03;;;5.50;;
11344;SDS011;5727;42.600;23.028;2024-01-30T02:06:31;6.17;;;5.67;;
11344;SDS011;5727;42.600;23.028;2024-01-30T02:09:00;6.60;;;6.00;;
11344;SDS011;5727;42.600;23.028;2024-01-30T02:11:27;6.47;;;5.93;;
11344;SDS011;5727;42.600;23.028;2024-01-30T02:13:56;7.13;;;6.50;;
11344;SDS011;5727;42.600;23.028;2024-01-30T02:16:29;8.00;;;7.17;;
11344;SDS011;5727;42.600;23.028;2024-01-30T02:18:56;6.70;;;6.10;;
11344;SDS011;5727;42.600;23.028;2024-01-30T02:21:26;5.30;;;4.90;;
11344;SDS011;5727;42.600;23.028;2024-01-30T02:23:54;6.30;;;5.70;;
11344;SDS011;5727;42.600;23.028;2024-01-30T02:26:21;6.60;;;6.00;;
11344;SDS011;5727;42.600;23.028;2024-01-30T02:28:49;6.10;;;5.60;;
11344;SDS011;5727;42.600;23.028;2024-01-30T02:31:16;6.10;;;5.60;;
11344;SDS011;5727;42.600;23.028;2024-01-30T02:33:43;6.73;;;6.07;;
11344;SDS011;5727;42.600;23.028;2024-01-30T02:36:11;5.93;;;5.47;;
11344;SDS011;5727;42.600;23.028;2024-01-30T02:38:42;5.97;;;5.47;;
11344;SDS011;5727;42.600;23.028;2024-01-30T02:41:11;5.67;;;5.20;;
11344;SDS011;5727;42.600;23.028;2024-01-30T02:43:39;5.83;;;5.40;;
11344;SDS011;5727;42.600;23.028;2024-01-30T02:46:07;5.90;;;5.40;;
11344;SDS011;5727;42.600;23.028;2024-01-30T02:48:34;5.70;;;5.30;;
11344;SDS011;5727;42.600;23.028;2024-01-30T02:51:04;6.37;;;5.80;;
11344;SDS011;5727;42.600;23.028;2024-01-30T02:53:32;6.20;;;5.37;;
11344;SDS011;5727;42.600;23.028;2024-01-30T02:56:01;5.83;;;5.33;;
11344;SDS011;5727;42.600;23.028;2024-01-30T02:58:29;6.30;;;5.70;;
11344;SDS011;5727;42.600;23.028;2024-01-30T03:00:56;6.00;;;5.50;;
11344;SDS011;5727;42.600;23.028;2024-01-30T03:03:23;6.47;;;5.87;;
11344;SDS011;5727;42.600;23.028;2024-01-30T03:05:50;6.03;;;5.43;;
11344;SDS011;5727;42.600;23.028;2024-01-30T03:08:17;6.20;;;5.70;;
11344;SDS011;5727;42.600;23.028;2024-01-30T03:10:45;6.30;;;5.70;;
11344;SDS011;5727;42.600;23.028;2024-01-30T03:13:13;5.60;;;5.20;;
11344;SDS011;5727;42.600;23.028;2024-01-30T03:15:41;5.27;;;4.97;;
11344;SDS011;5727;42.600;23.028;2024-01-30T03:18:08;5.93;;;5.47;;
11344;SDS011;5727;42.600;23.028;2024-01-30T03:20:35;6.00;;;5.50;;
11344;SDS011;5727;42.600;23.028;2024-01-30T03:23:02;5.90;;;5.50;;
11344;SDS011;5727;42.600;23.028;2024-01-30T03:25:30;6.10;;;5.60;;
11344;SDS011;5727;42.600;23.028;2024-01-30T03:28:00;5.97;;;5.40;;
11344;SDS011;5727;42.600;23.028;2024-01-30T03:30:29;5.77;;;5.37;;
11344;SDS011;5727;42.600;23.028;2024-01-30T03:32:57;5.90;;;5.40;;
11344;SDS011;5727;42.600;23.028;2024-01-30T03:35:25;6.10;;;5.60;;
11344;SDS011;5727;42.600;23.028;2024-01-30T03:37:53;5.03;;;4.63;;
11344;SDS011;5727;42.600;23.028;2024-01-30T03:40:21;5.70;;;5.23;;
11344;SDS011;5727;42.600;23.028;2024-01-30T03:42:50;5.80;;;5.40;;
11344;SDS011;5727;42.600;23.028;2024-01-30T03:45:19;5.00;;;4.70;;
11344;SDS011;5727;42.600;23.028;2024-01-30T03:47:48;5.77;;;5.33;;
11344;SDS011;5727;42.600;23.028;2024-01-30T03:50:16;5.63;;;5.20;;
11344;SDS011;5727;42.600;23.028;2024-01-30T03:52:43;6.07;;;5.57;;
11344;SDS011;5727;42.600;23.028;2024-01-30T03:55:10;5.60;;;5.20;;
11344;SDS011;5727;42.600;23.028;2024-01-30T03:57:38;5.90;;;5.40;;
11344;SDS011;5727;42.600;23.028;2024-01-30T04:00:06;6.20;;;5.60;;
11344;SDS011;5727;42.600;23.028;2024-01-30T04:02:34;5.03;;;4.73;;
11344;SDS011;5727;42.600;23.028;2024-01-30T04:05:03;5.70;;;5.30;;
11344;SDS011;5727;42.600;23.028;2024-01-30T04:07:31;5.27;;;4.87;;
11344;SDS011;5727;42.600;23.028;2024-01-30T04:09:58;5.43;;;5.03;;
11344;SDS011;5727;42.600;23.028;2024-01-30T04:12:25;6.07;;;5.47;;
11344;SDS011;5727;42.600;23.028;2024-01-30T04:14:53;5.20;;;4.73;;
11344;SDS011;5727;42.600;23.028;2024-01-30T04:17:20;4.50;;;4.30;;
11344;SDS011;5727;42.600;23.028;2024-01-30T04:19:47;5.20;;;4.80;;
11344;SDS011;5727;42.600;23.028;2024-01-30T04:22:15;5.17;;;4.77;;
11344;SDS011;5727;42.600;23.028;2024-01-30T04:24:43;4.90;;;4.60;;
11344;SDS011;5727;42.600;23.028;2024-01-30T04:27:10;5.07;;;4.70;;
11344;SDS011;5727;42.600;23.028;2024-01-30T04:29:37;5.30;;;4.80;;
11344;SDS011;5727;42.600;23.028;2024-01-30T04:32:05;5.43;;;5.03;;
11344;SDS011;5727;42.600;23.028;2024-01-30T04:34:33;5.10;;;4.80;;
11344;SDS011;5727;42.600;23.028;2024-01-30T04:37:01;4.97;;;4.57;;
11344;SDS011;5727;42.600;23.028;2024-01-30T04:39:29;4.87;;;4.60;;
11344;SDS011;5727;42.600;23.028;2024-01-30T04:41:57;5.43;;;5.03;;
11344;SDS011;5727;42.600;23.028;2024-01-30T04:44:24;5.20;;;4.80;;
11344;SDS011;5727;42.600;23.028;2024-01-30T04:46:52;5.67;;;5.17;;
11344;SDS011;5727;42.600;23.028;2024-01-30T04:49:19;5.27;;;4.87;;
11344;SDS011;5727;42.600;23.028;2024-01-30T04:51:45;5.27;;;4.77;;
11344;SDS011;5727;42.600;23.028;2024-01-30T04:54:12;4.83;;;4.53;;
11344;SDS011;5727;42.600;23.028;2024-01-30T04:56:41;5.10;;;4.50;;
11344;SDS011;5727;42.600;23.028;2024-01-30T04:59:08;4.83;;;4.43;;
11344;SDS011;5727;42.600;23.028;2024-01-30T05:01:35;5.20;;;4.87;;
11344;SDS011;5727;42.600;23.028;2024-01-30T05:04:02;6.10;;;5.20;;
11344;SDS011;5727;42.600;23.028;2024-01-30T05:06:29;5.87;;;5.47;;
11344;SDS011;5727;42.600;23.028;2024-01-30T05:08:56;5.60;;;5.20;;
11344;SDS011;5727;42.600;23.028;2024-01-30T05:11:23;5.23;;;4.83;;
11344;SDS011;5727;42.600;23.028;2024-01-30T05:13:52;5.50;;;5.20;;
11344;SDS011;5727;42.600;23.028;2024-01-30T05:16:19;5.80;;;5.30;;
11344;SDS011;5727;42.600;23.028;2024-01-30T05:18:45;5.73;;;5.27;;
11344;SDS011;5727;42.600;23.028;2024-01-30T05:21:12;5.83;;;5.33;;
11344;SDS011;5727;42.600;23.028;2024-01-30T05:23:40;5.73;;;5.30;;
11344;SDS011;5727;42.600;23.028;2024-01-30T05:26:07;5.40;;;5.10;;
11344;SDS011;5727;42.600;23.028;2024-01-30T05:28:34;5.47;;;5.07;;
11344;SDS011;5727;42.600;23.028;2024-01-30T05:31:03;6.03;;;5.53;;
11344;SDS011;5727;42.600;23.028;2024-01-30T05:33:30;5.50;;;5.20;;
11344;SDS011;5727;42.600;23.028;2024-01-30T05:35:57;7.17;;;5.87;;
11344;SDS011;5727;42.600;23.028;2024-01-30T05:38:24;7.13;;;6.10;;
11344;SDS011;5727;42.600;23.028;2024-01-30T05:40:51;7.67;;;6.33;;
11344;SDS011;5727;42.600;23.028;2024-01-30T05:43:18;6.77;;;6.03;;
11344;SDS011;5727;42.600;23.028;2024-01-30T05:45:44;6.57;;;5.97;;
11344;SDS011;5727;42.600;23.028;2024-01-30T05:48:13;6.00;;;5.40;;
11344;SDS011;5727;42.600;23.028;2024-01-30T05:50:40;6.20;;;5.60;;
11344;SDS011;5727;42.600;23.028;2024-01-30T05:53:07;5.97;;;5.47;;
11344;SDS011;5727;42.600;23.028;2024-01-30T05:55:33;6.10;;;5.50;;
11344;SDS011;5727;42.600;23.028;2024-01-30T05:58:00;6.47;;;5.90;;
11344;SDS011;5727;42.600;23.028;2024-01-30T06:00:28;7.17;;;6.07;;
11344;SDS011;5727;42.600;23.028;2024-01-30T06:02:55;6.17;;;5.67;;
11344;SDS011;5727;42.600;23.028;2024-01-30T06:05:23;5.77;;;5.27;;
11344;SDS011;5727;42.600;23.028;2024-01-30T06:08:07;6.47;;;5.93;;
11344;SDS011;5727;42.600;23.028;2024-01-30T06:10:34;6.13;;;5.50;;
11344;SDS011;5727;42.600;23.028;2024-01-30T06:13:01;6.93;;;6.20;;
11344;SDS011;5727;42.600;23.028;2024-01-30T06:15:28;6.00;;;5.53;;
11344;SDS011;5727;42.600;23.028;2024-01-30T06:17:55;5.80;;;5.40;;
11344;SDS011;5727;42.600;23.028;2024-01-30T06:20:26;6.70;;;6.10;;
11344;SDS011;5727;42.600;23.028;2024-01-30T06:22:53;6.20;;;5.70;;
11344;SDS011;5727;42.600;23.028;2024-01-30T06:25:20;6.57;;;5.20;;
11344;SDS011;5727;42.600;23.028;2024-01-30T06:27:47;5.73;;;5.30;;
11344;SDS011;5727;42.600;23.028;2024-01-30T06:30:14;7.27;;;5.60;;
11344;SDS011;5727;42.600;23.028;2024-01-30T06:32:41;7.20;;;6.60;;
11344;SDS011;5727;42.600;23.028;2024-01-30T06:35:08;8.07;;;7.10;;
11344;SDS011;5727;42.600;23.028;2024-01-30T06:37:37;6.17;;;5.67;;
11344;SDS011;5727;42.600;23.028;2024-01-30T06:40:05;6.23;;;5.63;;
11344;SDS011;5727;42.600;23.028;2024-01-30T06:42:32;6.43;;;5.83;;
11344;SDS011;5727;42.600;23.028;2024-01-30T06:44:59;6.23;;;5.53;;
11344;SDS011;5727;42.600;23.028;2024-01-30T06:47:26;6.37;;;5.77;;
11344;SDS011;5727;42.600;23.028;2024-01-30T06:49:54;9.87;;;6.63;;
11344;SDS011;5727;42.600;23.028;2024-01-30T06:52:20;6.53;;;5.73;;
11344;SDS011;5727;42.600;23.028;2024-01-30T06:54:49;5.73;;;5.10;;
11344;SDS011;5727;42.600;23.028;2024-01-30T06:57:16;6.00;;;5.50;;
11344;SDS011;5727;42.600;23.028;2024-01-30T06:59:43;5.57;;;5.17;;
11344;SDS011;5727;42.600;23.028;2024-01-30T07:02:10;6.67;;;5.60;;
11344;SDS011;5727;42.600;23.028;2024-01-30T07:04:37;5.93;;;5.50;;
11344;SDS011;5727;42.600;23.028;2024-01-30T07:07:04;4.93;;;4.63;;
11344;SDS011;5727;42.600;23.028;2024-01-30T07:09:36;9.87;;;8.73;;
11344;SDS011;5727;42.600;23.028;2024-01-30T07:12:05;17.07;;;12.40;;
11344;SDS011;5727;42.600;23.028;2024-01-30T07:14:32;15.73;;;10.60;;
11344;SDS011;5727;42.600;23.028;2024-01-30T07:16:59;10.53;;;9.33;;
11344;SDS011;5727;42.600;23.028;2024-01-30T07:19:26;31.27;;;18.17;;
11344;SDS011;5727;42.600;23.028;2024-01-30T07:21:53;23.90;;;16.33;;
11344;SDS011;5727;42.600;23.028;2024-01-30T07:24:20;12.60;;;10.20;;
11344;SDS011;5727;42.600;23.028;2024-01-30T07:26:47;8.00;;;7.00;;
11344;SDS011;5727;42.600;23.028;2024-01-30T07:29:15;8.07;;;7.33;;
11344;SDS011;5727;42.600;23.028;2024-01-30T07:31:42;9.57;;;6.40;;
11344;SDS011;5727;42.600;23.028;2024-01-30T07:34:09;5.73;;;5.23;;
11344;SDS011;5727;42.600;23.028;2024-01-30T07:36:36;17.53;;;9.60;;
11344;SDS011;5727;42.600;23.028;2024-01-30T07:39:03;10.43;;;6.67;;
11344;SDS011;5727;42.600;23.028;2024-01-30T07:41:30;7.00;;;6.17;;
11344;SDS011;5727;42.600;23.028;2024-01-30T07:43:57;7.07;;;6.47;;
11344;SDS011;5727;42.600;23.028;2024-01-30T07:46:26;6.73;;;6.13;;
11344;SDS011;5727;42.600;23.028;2024-01-30T07:48:53;9.37;;;5.27;;
11344;SDS011;5727;42.600;23.028;2024-01-30T07:51:20;7.73;;;5.67;;
11344;SDS011;5727;42.600;23.028;2024-01-30T07:53:47;6.33;;;5.83;;
11344;SDS011;5727;42.600;23.028;2024-01-30T07:56:14;6.23;;;5.80;;
11344;SDS011;5727;42.600;23.028;2024-01-30T07:58:41;9.33;;;8.33;;
11344;SDS011;5727;42.600;23.028;2024-01-30T08:01:08;6.87;;;6.27;;
11344;SDS011;5727;42.600;23.028;2024-01-30T08:03:37;7.57;;;6.97;;
11344;SDS011;5727;42.600;23.028;2024-01-30T08:06:06;6.53;;;5.93;;
11344;SDS011;5727;42.600;23.028;2024-01-30T08:08:33;7.00;;;6.30;;
11344;SDS011;5727;42.600;23.028;2024-01-30T08:10:59;6.60;;;6.00;;
11344;SDS011;5727;42.600;23.028;2024-01-30T08:13:27;7.13;;;6.43;;
11344;SDS011;5727;42.600;23.028;2024-01-30T08:15:54;6.87;;;6.27;;
11344;SDS011;5727;42.600;23.028;2024-01-30T08:18:20;9.43;;;7.00;;
11344;SDS011;5727;42.600;23.028;2024-01-30T08:20:49;6.63;;;6.03;;
11344;SDS011;5727;42.600;23.028;2024-01-30T08:23:16;7.23;;;6.53;;
11344;SDS011;5727;42.600;23.028;2024-01-30T08:25:43;5.43;;;4.93;;
11344;SDS011;5727;42.600;23.028;2024-01-30T08:28:10;5.80;;;5.40;;
11344;SDS011;5727;42.600;23.028;2024-01-30T08:30:37;6.50;;;5.90;;
11344;SDS011;5727;42.600;23.028;2024-01-30T08:33:04;7.10;;;6.50;;
11344;SDS011;5727;42.600;23.028;2024-01-30T08:35:31;7.87;;;5.80;;
11344;SDS011;5727;42.600;23.028;2024-01-30T08:38:00;5.73;;;5.27;;
11344;SDS011;5727;42.600;23.028;2024-01-30T08:40:29;6.53;;;5.87;;
11344;SDS011;5727;42.600;23.028;2024-01-30T08:42:56;5.33;;;5.03;;
11344;SDS011;5727;42.600;23.028;2024-01-30T08:45:23;8.07;;;7.33;;
11344;SDS011;5727;42.600;23.028;2024-01-30T08:47:50;11.57;;;9.43;;
11344;SDS011;5727;42.600;23.028;2024-01-30T08:50:17;7.27;;;6.57;;
11344;SDS011;5727;42.600;23.028;2024-01-30T08:52:44;7.90;;;7.10;;
11344;SDS011;5727;42.600;23.028;2024-01-30T08:55:12;6.97;;;6.37;;
11344;SDS011;5727;42.600;23.028;2024-01-30T08:57:39;8.13;;;7.30;;
11344;SDS011;5727;42.600;23.028;2024-01-30T09:00:06;7.27;;;5.43;;
11344;SDS011;5727;42.600;23.028;2024-01-30T09:02:35;5.77;;;5.27;;
11344;SDS011;5727;42.600;23.028;2024-01-30T09:05:02;5.53;;;5.03;;
11344;SDS011;5727;42.600;23.028;2024-01-30T09:07:29;6.33;;;5.70;;
11344;SDS011;5727;42.600;23.028;2024-01-30T09:09:56;5.70;;;5.30;;
11344;SDS011;5727;42.600;23.028;2024-01-30T09:12:24;5.77;;;5.20;;
11344;SDS011;5727;42.600;23.028;2024-01-30T09:14:51;6.07;;;5.50;;
11344;SDS011;5727;42.600;23.028;2024-01-30T09:17:18;6.73;;;6.03;;
11344;SDS011;5727;42.600;23.028;2024-01-30T09:19:45;7.13;;;5.03;;
11344;SDS011;5727;42.600;23.028;2024-01-30T09:22:12;9.57;;;5.87;;
11344;SDS011;5727;42.600;23.028;2024-01-30T09:24:39;6.70;;;6.10;;
11344;SDS011;5727;42.600;23.028;2024-01-30T09:27:07;6.17;;;5.73;;
11344;SDS011;5727;42.600;23.028;2024-01-30T09:29:35;5.97;;;5.47;;
11344;SDS011;5727;42.600;23.028;2024-01-30T09:32:03;6.13;;;5.63;;
11344;SDS011;5727;42.600;23.028;2024-01-30T09:34:30;6.63;;;5.80;;
11344;SDS011;5727;42.600;23.028;2024-01-30T09:36:58;7.07;;;5.70;;
11344;SDS011;5727;42.600;23.028;2024-01-30T09:39:25;6.10;;;5.47;;
11344;SDS011;5727;42.600;23.028;2024-01-30T09:41:55;6.43;;;5.83;;
11344;SDS011;5727;42.600;23.028;2024-01-30T09:44:28;6.63;;;5.83;;
11344;SDS011;5727;42.600;23.028;2024-01-30T09:46:57;6.20;;;5.70;;
11344;SDS011;5727;42.600;23.028;2024-01-30T09:49:29;6.47;;;5.87;;
11344;SDS011;5727;42.600;23.028;2024-01-30T09:51:57;6.30;;;5.80;;
11344;SDS011;5727;42.600;23.028;2024-01-30T09:54:25;9.23;;;6.60;;
11344;SDS011;5727;42.600;23.028;2024-01-30T09:56:51;6.20;;;5.60;;
11344;SDS011;5727;42.600;23.028;2024-01-30T09:59:18;7.37;;;5.93;;
11344;SDS011;5727;42.600;23.028;2024-01-30T10:01:46;6.07;;;5.50;;
11344;SDS011;5727;42.600;23.028;2024-01-30T10:04:14;6.13;;;5.40;;
11344;SDS011;5727;42.600;23.028;2024-01-30T10:06:41;5.97;;;5.37;;
11344;SDS011;5727;42.600;23.028;2024-01-30T10:09:08;6.40;;;5.23;;
11344;SDS011;5727;42.600;23.028;2024-01-30T10:11:36;5.63;;;4.70;;
11344;SDS011;5727;42.600;23.028;2024-01-30T10:14:03;5.50;;;5.07;;
11344;SDS011;5727;42.600;23.028;2024-01-30T10:16:30;4.97;;;4.57;;
11344;SDS011;5727;42.600;23.028;2024-01-30T10:18:57;7.00;;;6.30;;
11344;SDS011;5727;42.600;23.028;2024-01-30T10:21:25;18.37;;;9.40;;
11344;SDS011;5727;42.600;23.028;2024-01-30T10:23:52;9.67;;;7.10;;
11344;SDS011;5727;42.600;23.028;2024-01-30T10:26:19;8.37;;;5.60;;
11344;SDS011;5727;42.600;23.028;2024-01-30T10:28:47;5.10;;;4.70;;
11344;SDS011;5727;42.600;23.028;2024-01-30T10:31:16;6.10;;;5.60;;
11344;SDS011;5727;42.600;23.028;2024-01-30T10:33:44;5.17;;;4.80;;
11344;SDS011;5727;42.600;23.028;2024-01-30T10:36:13;6.27;;;5.67;;
11344;SDS011;5727;42.600;23.028;2024-01-30T10:38:43;5.63;;;5.13;;
11344;SDS011;5727;42.600;23.028;2024-01-30T10:41:11;6.33;;;5.73;;
11344;SDS011;5727;42.600;23.028;2024-01-30T10:43:41;6.00;;;5.27;;
11344;SDS011;5727;42.600;23.028;2024-01-30T10:46:16;6.07;;;5.60;;
11344;SDS011;5727;42.600;23.028;2024-01-30T10:48:46;6.57;;;5.10;;
11344;SDS011;5727;42.600;23.028;2024-01-30T10:51:20;6.20;;;5.60;;
11344;SDS011;5727;42.600;23.028;2024-01-30T10:53:49;5.73;;;5.03;;
11344;SDS011;5727;42.600;23.028;2024-01-30T10:56:17;5.23;;;4.83;;
11344;SDS011;5727;42.600;23.028;2024-01-30T10:58:47;7.37;;;4.53;;
11344;SDS011;5727;42.600;23.028;2024-01-30T11:01:15;5.07;;;4.67;;
11344;SDS011;5727;42.600;23.028;2024-01-30T11:03:43;5.60;;;5.10;;
11344;SDS011;5727;42.600;23.028;2024-01-30T11:06:10;5.37;;;4.90;;
11344;SDS011;5727;42.600;23.028;2024-01-30T11:08:39;4.97;;;4.63;;
11344;SDS011;5727;42.600;23.028;2024-01-30T11:11:09;5.30;;;4.90;;
11344;SDS011;5727;42.600;23.028;2024-01-30T11:13:36;5.67;;;5.20;;
11344;SDS011;5727;42.600;23.028;2024-01-30T11:16:03;7.03;;;5.87;;
11344;SDS011;5727;42.600;23.028;2024-01-30T11:18:32;6.57;;;5.83;;
11344;SDS011;5727;42.600;23.028;2024-01-30T11:20:59;5.23;;;4.83;;
11344;SDS011;5727;42.600;23.028;2024-01-30T11:23:27;5.53;;;5.03;;
11344;SDS011;5727;42.600;23.028;2024-01-30T11:25:54;6.97;;;5.40;;
11344;SDS011;5727;42.600;23.028;2024-01-30T11:28:22;5.47;;;4.97;;
11344;SDS011;5727;42.600;23.028;2024-01-30T11:30:49;7.67;;;5.33;;
11344;SDS011;5727;42.600;23.028;2024-01-30T11:33:27;6.33;;;5.83;;
11344;SDS011;5727;42.600;23.028;2024-01-30T11:35:56;7.90;;;6.27;;
11344;SDS011;5727;42.600;23.028;2024-01-30T11:38:25;7.43;;;6.23;;
11344;SDS011;5727;42.600;23.028;2024-01-30T11:40:53;7.37;;;6.20;;
11344;SDS011;5727;42.600;23.028;2024-01-30T11:43:22;5.73;;;5.23;;
11344;SDS011;5727;42.600;23.028;2024-01-30T11:45:50;5.00;;;4.70;;
11344;SDS011;5727;42.600;23.028;2024-01-30T11:48:17;6.33;;;5.33;;
11344;SDS011;5727;42.600;23.028;2024-01-30T11:50:44;6.80;;;5.27;;
11344;SDS011;5727;42.600;23.028;2024-01-30T11:53:11;6.43;;;5.80;;
11344;SDS011;5727;42.600;23.028;2024-01-30T11:55:38;5.27;;;4.87;;
11344;SDS011;5727;42.600;23.028;2024-01-30T11:58:05;5.40;;;5.00;;
11344;SDS011;5727;42.600;23.028;2024-01-30T12:00:33;5.60;;;5.07;;
11344;SDS011;5727;42.600;23.028;2024-01-30T12:03:00;6.43;;;5.90;;
11344;SDS011;5727;42.600;23.028;2024-01-30T12:05:28;6.60;;;5.90;;
11344;SDS011;5727;42.600;23.028;2024-01-30T12:07:55;5.93;;;5.33;;
11344;SDS011;5727;42.600;23.028;2024-01-30T12:10:24;6.17;;;5.40;;
11344;SDS011;5727;42.600;23.028;2024-01-30T12:12:52;5.70;;;5.20;;
11344;SDS011;5727;42.600;23.028;2024-01-30T12:15:21;5.27;;;4.77;;
11344;SDS011;5727;42.600;23.028;2024-01-30T12:17:50;5.93;;;5.43;;
11344;SDS011;5727;42.600;23.028;2024-01-30T12:20:17;5.90;;;5.40;;
11344;SDS011;5727;42.600;23.028;2024-01-30T12:22:45;7.73;;;6.97;;
11344;SDS011;5727;42.600;23.028;2024-01-30T12:25:13;7.60;;;5.93;;
11344;SDS011;5727;42.600;23.028;2024-01-30T12:27:42;5.50;;;5.10;;
11344;SDS011;5727;42.600;23.028;2024-01-30T12:30:10;10.67;;;7.47;;
11344;SDS011;5727;42.600;23.028;2024-01-30T12:32:39;19.80;;;15.27;;
11344;SDS011;5727;42.600;23.028;2024-01-30T12:35:09;5.97;;;5.37;;
11344;SDS011;5727;42.600;23.028;2024-01-30T12:37:36;6.70;;;6.00;;
11344;SDS011;5727;42.600;23.028;2024-01-30T12:40:04;6.10;;;5.37;;
11344;SDS011;5727;42.600;23.028;2024-01-30T12:42:32;6.07;;;5.57;;
11344;SDS011;5727;42.600;23.028;2024-01-30T12:44:59;6.80;;;6.20;;
11344;SDS011;5727;42.600;23.028;2024-01-30T12:47:28;6.37;;;5.43;;
11344;SDS011;5727;42.600;23.028;2024-01-30T12:49:55;5.73;;;5.23;;
11344;SDS011;5727;42.600;23.028;2024-01-30T12:52:23;5.63;;;5.13;;
11344;SDS011;5727;42.600;23.028;2024-01-30T12:54:51;8.10;;;5.57;;
11344;SDS011;5727;42.600;23.028;2024-01-30T12:57:18;6.43;;;5.83;;
11344;SDS011;5727;42.600;23.028;2024-01-30T12:59:45;5.60;;;5.10;;
11344;SDS011;5727;42.600;23.028;2024-01-30T13:02:12;5.83;;;5.20;;
11344;SDS011;5727;42.600;23.028;2024-01-30T13:04:40;6.40;;;5.80;;
11344;SDS011;5727;42.600;23.028;2024-01-30T13:07:07;7.27;;;6.37;;
11344;SDS011;5727;42.600;23.028;2024-01-30T13:09:35;6.70;;;4.63;;
11344;SDS011;5727;42.600;23.028;2024-01-30T13:12:03;6.10;;;5.50;;
11344;SDS011;5727;42.600;23.028;2024-01-30T13:14:30;5.23;;;4.73;;
11344;SDS011;5727;42.600;23.028;2024-01-30T13:16:57;6.13;;;5.27;;
11344;SDS011;5727;42.600;23.028;2024-01-30T13:19:24;5.23;;;4.63;;
11344;SDS011;5727;42.600;23.028;2024-01-30T13:21:52;5.63;;;4.80;;
11344;SDS011;5727;42.600;23.028;2024-01-30T13:24:19;5.70;;;4.80;;
11344;SDS011;5727;42.600;23.028;2024-01-30T13:26:48;5.30;;;4.80;;
11344;SDS011;5727;42.600;23.028;2024-01-30T13:29:15;5.00;;;4.60;;
11344;SDS011;5727;42.600;23.028;2024-01-30T13:31:42;6.37;;;5.67;;
11344;SDS011;5727;42.600;23.028;2024-01-30T13:34:11;4.43;;;4.13;;
11344;SDS011;5727;42.600;23.028;2024-01-30T13:36:38;8.73;;;5.63;;
11344;SDS011;5727;42.600;23.028;2024-01-30T13:39:06;7.97;;;5.87;;
11344;SDS011;5727;42.600;23.028;2024-01-30T13:41:35;6.47;;;5.43;;
11344;SDS011;5727;42.600;23.028;2024-01-30T13:44:04;6.20;;;5.60;;
11344;SDS011;5727;42.600;23.028;2024-01-30T13:46:31;7.87;;;7.13;;
11344;SDS011;5727;42.600;23.028;2024-01-30T13:48:58;9.97;;;5.33;;
11344;SDS011;5727;42.600;23.028;2024-01-30T13:51:25;5.77;;;4.57;;
11344;SDS011;5727;42.600;23.028;2024-01-30T13:53:52;6.37;;;5.87;;
11344;SDS011;5727;42.600;23.028;2024-01-30T13:56:19;6.67;;;5.57;;
11344;SDS011;5727;42.600;23.028;2024-01-30T13:58:46;8.87;;;5.00;;
11344;SDS011;5727;42.600;23.028;2024-01-30T14:01:15;5.80;;;5.20;;
11344;SDS011;5727;42.600;23.028;2024-01-30T14:03:42;5.60;;;4.97;;
11344;SDS011;5727;42.600;23.028;2024-01-30T14:06:09;4.97;;;4.50;;
11344;SDS011;5727;42.600;23.028;2024-01-30T14:08:36;7.13;;;5.10;;
11344;SDS011;5727;42.600;23.028;2024-01-30T14:11:03;4.93;;;4.50;;
11344;SDS011;5727;42.600;23.028;2024-01-30T14:13:30;5.50;;;5.00;;
11344;SDS011;5727;42.600;23.028;2024-01-30T14:15:58;9.13;;;7.33;;
11344;SDS011;5727;42.600;23.028;2024-01-30T14:18:26;5.87;;;5.20;;
11344;SDS011;5727;42.600;23.028;2024-01-30T14:20:53;7.17;;;5.80;;
11344;SDS011;5727;42.600;23.028;2024-01-30T14:23:21;7.80;;;6.10;;
11344;SDS011;5727;42.600;23.028;2024-01-30T14:25:48;8.27;;;6.90;;
11344;SDS011;5727;42.600;23.028;2024-01-30T14:28:16;6.03;;;5.43;;
11344;SDS011;5727;42.600;23.028;2024-01-30T14:30:43;5.40;;;4.90;;
11344;SDS011;5727;42.600;23.028;2024-01-30T14:33:10;6.07;;;5.47;;
11344;SDS011;5727;42.600;23.028;2024-01-30T14:35:39;5.60;;;4.77;;
11344;SDS011;5727;42.600;23.028;2024-01-30T14:38:06;6.60;;;5.27;;
11344;SDS011;5727;42.600;23.028;2024-01-30T14:40:33;6.30;;;5.50;;
11344;SDS011;5727;42.600;23.028;2024-01-30T14:43:00;6.97;;;4.50;;
11344;SDS011;5727;42.600;23.028;2024-01-30T14:45:28;6.30;;;5.17;;
11344;SDS011;5727;42.600;23.028;2024-01-30T14:47:57;6.37;;;4.97;;
11344;SDS011;5727;42.600;23.028;2024-01-30T14:50:24;6.60;;;5.97;;